Nearby METAR Reports

 

KTAN - Taunton, Massachusetts, USA
Distance from station: W 5mi, 8km
Updated: 10/16/2019 10:15pm
Rain, Mist, Overcast
Rain, Mist, Overcast
 Wind from E
Wind: E 12 mph , 19 km/h, Gust: 22 mph , 35 km/h
Temperature: 59°F , 15°C
Dew Point: 55°F , 13°C
Humidity: 88%
Barometer: 29.42 inHg , 996.3 hPa
Summary: Rain, Mist
Clouds: Overcast
Visibility: 5 miles , 8 km
Cloud details: Mostly cloudy 900 ft
Mostly cloudy 7000 ft
Overcast 8000 ft
2019/10/17 02:15 KTAN 170215Z AUTO 09010G19KT 5SM RA BR BKN009 BKN070 OVC080 15/13 A2942 RMK AO2 PRESFR P0005 T01500128
KPYM - Plymouth, Massachusetts, USA
Distance from station: ENE 10mi, 16km
Updated: 10/16/2019 10:14pm
Rain, Overcast
Rain, Overcast
 Wind from E
Wind: E 22 mph , 35 km/h, Gust: 29 mph , 46 km/h
Temperature: 57°F , 14°C
Dew Point: 55°F , 13°C
Humidity: 94%
Barometer: 29.47 inHg , 998 hPa
Summary: Rain
Clouds: Overcast
Visibility: 8 miles , 13 km
Cloud details: Mostly cloudy 900 ft
Mostly cloudy 4900 ft
Overcast 8500 ft
2019/10/17 02:14 KPYM 170214Z AUTO 09019G25KT 8SM RA BKN009 BKN049 OVC085 14/13 A2947 RMK AO2 PK WND 09026/0201 PRESFR P0002 T01390128
 
KEWB - New Bedford, Massachusetts, USA
Distance from station: S 14mi, 23km
Updated: 10/16/2019 10:21pm
Rain, Mist, Overcast
Rain, Mist, Overcast
 Wind from E
Wind: E 18 mph , 30 km/h, Gust: 32 mph , 52 km/h
Temperature: 59°F , 15°C
Dew Point: 55°F , 13°C
Humidity: 88%
Barometer: 29.39 inHg , 995.3 hPa
Summary: Rain, Mist
Clouds: Overcast
Visibility: 6 miles , 10 km
Cloud details: Mostly cloudy 800 ft
Mostly cloudy 2500 ft
Overcast 3100 ft
2019/10/17 02:21 KEWB 170221Z AUTO 09016G28KT 6SM RA BR BKN008 BKN025 OVC031 15/13 A2939 RMK AO2 PK WND 10028/0219 PRESFR P0005 T01500133
KGHG - Marshfield, Massachusetts, USA
Distance from station: NE 20mi, 31km
Updated: 10/16/2019 10:15pm
Light rain, Clear
Light rain, Clear
 Wind from E
Wind: E 21 mph , 33 km/h, Gust: 29 mph , 46 km/h
Temperature: 59°F , 15°C
Dew Point: 57°F , 14°C
Humidity: 94%
Barometer: 29.50 inHg , 999 hPa
Summary: Light rain
Clouds: Clear
Visibility: 5 miles , 8 km
2019/10/17 02:15 KGHG 170215Z AUTO 09018G25KT 5SM -RA CLR 15/14 A2950 RMK AO2
 
KOWD - Norwood, Massachusetts, USA
Distance from station: NNW 24mi, 39km
Updated: 10/16/2019 10:32pm
Light rain, Overcast
Light rain, Overcast
 Wind from E
Wind: E 15 mph , 24 km/h, Gust: 28 mph , 44 km/h
Temperature: 59°F , 15°C
Dew Point: 54°F , 12°C
Humidity: 82%
Barometer: 29.44 inHg , 997 hPa
Summary: Light rain
Clouds: Overcast
Visibility: 8 miles , 13 km
Cloud details: Mostly cloudy 800 ft
Overcast 1200 ft
2019/10/17 02:32 KOWD 170232Z AUTO 08013G24KT 8SM -RA BKN008 OVC012 15/12 A2944 RMK AO2 PRESFR P0003 T01500122
KMQE - East Milton, Massachusetts, USA
Distance from station: NNW 25mi, 40km
Updated: 10/16/2019 9:56pm

 Wind from E
Wind: E 21 mph , 33 km/h, Gust: 35 mph , 56 km/h
Temperature: 54°F , 12°C
Dew Point: 54°F , 12°C
Humidity: 100%
Barometer: 29.50 inHg , 999 hPa
2019/10/17 01:56 KMQE 170156Z AUTO 09018G30KT 12/12 A2950 RMK AO1 PK WND 09030/0152 PRESFR SLP999 P0009 T01220117
 
KFMH - Falmouth/Otis Ab, Massachusetts, USA
Distance from station: SE 27mi, 44km
Updated: 10/16/2019 10:26pm
Light rain, Overcast
Light rain, Overcast
 Wind from ESE
Wind: ESE 30 mph , 48 km/h, Gust: 39 mph , 63 km/h
Temperature: 57°F , 14°C
Dew Point: 57°F , 14°C
Humidity: 100%
Barometer: 29.42 inHg , 996.3 hPa
Summary: Light rain
Clouds: Overcast
Visibility: 7 miles , 11 km
Cloud details: Mostly cloudy 900 ft
Mostly cloudy 3000 ft
Overcast 3700 ft
2019/10/17 02:26 KFMH 170226Z 11026G34KT 7SM -RA BKN009 BKN030 OVC037 14/14 A2942
KPVD - Providence/Green, Rhode Island, USA
Distance from station: WSW 29mi, 47km
Updated: 10/16/2019 10:13pm
Heavy rain, Mist, Overcast
Heavy rain, Mist, Overcast
 Wind from ENE
Wind: ENE 18 mph , 30 km/h
Temperature: 57°F , 14°C
Dew Point: 55°F , 13°C
Humidity: 94%
Barometer: 29.38 inHg , 994.9 hPa
Summary: Heavy rain, Mist
Clouds: Overcast
Visibility: 3 miles , 5 km
Cloud details: Mostly cloudy 800 ft
Mostly cloudy 1300 ft
Overcast 2000 ft
2019/10/17 02:13 KPVD 170213Z 07016KT 3SM +RA BR BKN008 BKN013 OVC020 14/13 A2938 RMK AO2 P0011 T01390133 $
 
KSFZ - Pawtucket, Rhode Island, USA
Distance from station: W 30mi, 48km
Updated: 10/16/2019 9:56pm
Rain, Overcast
Rain, Overcast
 Wind from E
Wind: E 12 mph , 19 km/h, Gust: 22 mph , 35 km/h
Barometer: 29.45 inHg , 997.3 hPa
Summary: Rain
Clouds: Overcast
Visibility: 8 miles , 13 km
Cloud details: Mostly cloudy 500 ft
Overcast 900 ft
2019/10/17 01:56 KSFZ 170156Z AUTO 08010G19KT 8SM RA BKN005 OVC009 A2945 RMK AO2 CIG 003V007 PRESFR SLPNO P0014 FZRANO $
KUUU - Newport, Rhode Island, USA
Distance from station: SW 31mi, 50km
Updated: 10/16/2019 10:33pm
Rain, Mist, Overcast
Rain, Mist, Overcast
 Wind from E
Wind: E 22 mph , 35 km/h, Gust: 36 mph , 57 km/h
Temperature: 61°F , 16°C
Dew Point: 57°F , 14°C
Humidity: 88%
Barometer: 29.32 inHg , 992.9 hPa
Summary: Rain, Mist
Clouds: Overcast
Visibility: 3 miles , 5 km
Cloud details: Overcast 800 ft
2019/10/17 02:33 KUUU 170233Z AUTO 09019G31KT 3SM RA BR OVC008 16/14 A2932 RMK AO2 PK WND 08032/0204 CIG 006V012 PRESFR P0017 T01560139
 
KOQU - N. Kingston/Quon, Rhode Island, USA
Distance from station: SW 32mi, 52km
Updated: 10/16/2019 9:50pm
Rain, Mist, Overcast
Rain, Mist, Overcast
 Wind from E
Wind: E 35 mph , 56 km/h
Temperature: 59°F , 15°C
Dew Point: 57°F , 14°C
Humidity: 94%
Barometer: 29.40 inHg , 995.6 hPa
Summary: Rain, Mist
Clouds: Overcast
Visibility: 4 miles , 6 km
Cloud details: Few Clouds 700 ft
Partly cloudy 1100 ft
Overcast 1700 ft
2019/10/17 01:50 KOQU 170150Z 10030KT 4SM RA BR FEW007 SCT011 OVC017 15/14 A2940 RMK PRESFR
KBOS - Boston, Massachusetts, USA
Distance from station: N 33mi, 54km
Updated: 10/16/2019 9:54pm
Rain, Overcast
Rain, Overcast
 Wind from E
Wind: E 28 mph , 44 km/h, Gust: 35 mph , 56 km/h
Temperature: 59°F , 15°C
Dew Point: 54°F , 12°C
Humidity: 82%
Barometer: 29.56 inHg , 1001 hPa
Summary: Rain
Clouds: Overcast
Visibility: 7 miles , 11 km
Cloud details: Partly cloudy 1500 ft
Mostly cloudy 5500 ft
Overcast 7000 ft
2019/10/17 01:54 KBOS 170154Z 10024G30KT 7SM RA SCT015 BKN055 OVC070 15/12 A2956 RMK AO2 PK WND 11030/0154 RAB12 SLP010 P0002 T01500117 $
 
KHYA - Hyannis, Massachusetts, USA
Distance from station: ESE 37mi, 59km
Updated: 10/16/2019 9:56pm
Light rain, Overcast
Light rain, Overcast
 Wind from E
Wind: E 15 mph , 24 km/h, Gust: 31 mph , 50 km/h
Temperature: 59°F , 15°C
Dew Point: 55°F , 13°C
Humidity: 88%
Barometer: 29.48 inHg , 998.3 hPa
Summary: Light rain
Clouds: Overcast
Visibility: 7 miles , 11 km
Cloud details: Few Clouds 7000 ft
Overcast 8500 ft
2019/10/17 01:56 KHYA 170156Z 09013G27KT 7SM -RA FEW070 OVC085 15/13 A2948 RMK AO2 PK WND 10027/0155 RAB12 PRESFR SLP983 P0003 T01500128
KMVY - Marthas Vineyard, Massachusetts, USA
Distance from station: SSE 37mi, 60km
Updated: 10/16/2019 10:08pm
Rain, Mist, Overcast
Rain, Mist, Overcast
 Wind from E
Wind: E 24 mph , 39 km/h, Gust: 35 mph , 56 km/h
Temperature: 61°F , 16°C
Dew Point: 57°F , 14°C
Humidity: 88%
Barometer: 29.41 inHg , 995.9 hPa
Summary: Rain, Mist
Clouds: Overcast
Visibility: 5 miles , 8 km
Cloud details: Mostly cloudy 2800 ft
Overcast 3500 ft
2019/10/17 02:08 KMVY 170208Z AUTO 09021G30KT 5SM RA BR BKN028 OVC035 16/14 A2941 RMK AO2 PK WND 11030/0206 PRESFR P0003 T01560139
 
KPVC - Provincetown, Massachusetts, USA
Distance from station: ENE 38mi, 61km
Updated: 10/16/2019 9:56pm
Light rain, Mostly cloudy
Light rain, Mostly cloudy
 Wind from ESE
Wind: ESE 21 mph , 33 km/h, Gust: 31 mph , 50 km/h
Temperature: 59°F , 15°C
Dew Point: 54°F , 12°C
Humidity: 82%
Barometer: 29.57 inHg , 1001.4 hPa
Summary: Light rain
Clouds: Mostly cloudy
Visibility: 10 miles , 16 km
Cloud details: Partly cloudy 6000 ft
Mostly cloudy 7500 ft
2019/10/17 01:56 KPVC 170156Z AUTO 11018G27KT 10SM -RA SCT060 BKN075 15/12 A2957 RMK AO2 PK WND 11027/0149 RAB56 PRESFR SLP014 T01500122 PNO $
KBED - Bedford, Massachusetts, USA
Distance from station: NNW 44mi, 72km
Updated: 10/16/2019 10:32pm
Light rain, Overcast
Light rain, Overcast
 Wind from E
Wind: E 20 mph , 31 km/h, Gust: 35 mph , 56 km/h
Temperature: 59°F , 15°C
Dew Point: 54°F , 12°C
Humidity: 82%
Barometer: 29.47 inHg , 998 hPa
Summary: Light rain
Clouds: Overcast
Visibility: 9 miles , 14 km
Cloud details: Overcast 900 ft
2019/10/17 02:32 KBED 170232Z 08017G30KT 9SM -RA OVC009 15/12 A2947 RMK AO2 PK WND 08030/0223 CIG 007V012 PRESFR P0009 T01500122
 
KBVY - Beverly, Massachusetts, USA
Distance from station: 0 48mi, 77km
Updated: 10/16/2019 9:53pm
Light rain, Overcast
Light rain, Overcast
 Wind from E
Wind: E 20 mph , 31 km/h, Gust: 25 mph , 41 km/h
Temperature: 57°F , 14°C
Dew Point: 52°F , 11°C
Humidity: 82%
Barometer: 29.58 inHg , 1001.7 hPa
Summary: Light rain
Clouds: Overcast
Visibility: 9 miles , 14 km
Cloud details: Overcast 1300 ft
2019/10/17 01:53 KBVY 170153Z AUTO 10017G22KT 9SM -RA OVC013 14/11 A2958 RMK AO2 RAB46 PRESFR SLP012 P0000 T01390111
KCQX - Chatham, Massachusetts, USA
Distance from station: ESE 49mi, 80km
Updated: 10/16/2019 9:52pm
Light rain, Overcast
Light rain, Overcast
 Wind from E
Wind: E 17 mph , 28 km/h, Gust: 28 mph , 44 km/h
Temperature: 59°F , 15°C
Dew Point: 55°F , 13°C
Humidity: 88%
Barometer: 29.56 inHg , 1001 hPa
Summary: Light rain
Clouds: Overcast
Visibility: 7 miles , 11 km
Cloud details: Few Clouds 6000 ft
Overcast 7500 ft
2019/10/17 01:52 KCQX 170152Z AUTO 10015G24KT 7SM -RA FEW060 OVC075 15/13 A2956 RMK AO2 PK WND 10028/0139 RAB37 PRESFR SLP012 P0001 T01500128